createdAt,value
2022-12-18T00:00:06.109Z,7.90
2022-12-18T00:03:01.986Z,7.60
2022-12-18T00:05:30.577Z,9.00
2022-12-18T00:07:58.510Z,9.30
2022-12-18T00:10:26.721Z,7.60
2022-12-18T00:12:54.718Z,7.20
2022-12-18T00:15:22.723Z,8.20
2022-12-18T00:17:51.255Z,8.20
2022-12-18T00:20:24.773Z,7.60
2022-12-18T00:22:54.084Z,8.60
2022-12-18T00:25:22.341Z,8.70
2022-12-18T00:27:50.287Z,8.40
2022-12-18T00:30:19.517Z,7.50
2022-12-18T00:32:47.429Z,8.70
2022-12-18T00:35:15.307Z,8.80
2022-12-18T00:37:43.766Z,10.00
2022-12-18T00:40:13.588Z,10.10
2022-12-18T00:42:56.676Z,7.90
2022-12-18T00:45:27.445Z,8.10
2022-12-18T00:47:56.736Z,8.80
2022-12-18T00:50:26.174Z,7.50
2022-12-18T00:52:54.115Z,7.80
2022-12-18T00:55:21.928Z,7.10
2022-12-18T00:57:52.957Z,7.80
2022-12-18T01:00:21.662Z,6.80
2022-12-18T01:02:49.697Z,8.20
2022-12-18T01:05:18.209Z,8.90
2022-12-18T01:07:46.272Z,8.00
2022-12-18T01:10:14.712Z,7.80
2022-12-18T01:12:42.723Z,7.70
2022-12-18T01:15:13.996Z,7.40
2022-12-18T01:17:42.560Z,7.40
2022-12-18T01:20:13.190Z,6.20
2022-12-18T01:22:41.436Z,6.90
2022-12-18T01:25:09.860Z,8.30
2022-12-18T01:27:38.037Z,7.10
2022-12-18T01:30:06.775Z,8.80
2022-12-18T01:32:34.687Z,10.10
2022-12-18T01:35:04.804Z,9.20
2022-12-18T01:37:32.950Z,10.40
2022-12-18T01:40:01.041Z,10.60
2022-12-18T01:42:29.472Z,10.20
2022-12-18T01:45:06.027Z,8.60
2022-12-18T01:47:50.872Z,10.60
2022-12-18T01:50:23.958Z,10.00
2022-12-18T01:52:59.445Z,8.00
2022-12-18T01:55:32.019Z,7.50
2022-12-18T01:58:01.701Z,9.40
2022-12-18T02:00:30.475Z,9.60
2022-12-18T02:02:58.636Z,9.20
2022-12-18T02:05:48.318Z,10.70
2022-12-18T02:08:25.896Z,8.40
2022-12-18T02:11:23.363Z,8.80
2022-12-18T02:14:21.740Z,8.20
2022-12-18T02:16:57.321Z,7.60
2022-12-18T02:19:45.734Z,7.60
2022-12-18T02:22:30.913Z,8.30
2022-12-18T02:25:17.471Z,9.20
2022-12-18T02:27:50.303Z,7.00
2022-12-18T02:30:20.215Z,10.00
2022-12-18T02:32:54.624Z,8.80
2022-12-18T02:35:30.519Z,8.90
2022-12-18T02:38:00.213Z,8.50
2022-12-18T02:40:31.504Z,7.50
2022-12-18T02:43:11.686Z,7.90
2022-12-18T02:45:55.916Z,7.00
2022-12-18T02:48:29.853Z,6.70
2022-12-18T02:51:24.700Z,6.70
2022-12-18T02:54:03.871Z,9.10
2022-12-18T02:56:40.040Z,9.60
2022-12-18T02:59:16.698Z,8.90
2022-12-18T03:02:03.082Z,9.60
2022-12-18T03:04:49.876Z,10.30
2022-12-18T03:07:39.115Z,9.50
2022-12-18T03:10:14.758Z,8.90
2022-12-18T03:12:51.411Z,9.30
2022-12-18T03:15:31.872Z,6.80
2022-12-18T03:18:24.400Z,9.10
2022-12-18T03:20:57.095Z,7.10
2022-12-18T03:23:29.360Z,7.80
2022-12-18T03:26:07.163Z,6.50
2022-12-18T03:28:43.219Z,9.00
2022-12-18T03:31:15.329Z,9.20
2022-12-18T03:33:55.471Z,9.40
2022-12-18T03:36:28.064Z,8.10
2022-12-18T03:38:56.153Z,8.70
2022-12-18T03:41:34.813Z,9.10
2022-12-18T03:44:51.132Z,7.80
2022-12-18T03:47:45.515Z,6.60
2022-12-18T03:50:20.991Z,7.60
2022-12-18T03:53:38.728Z,6.10
2022-12-18T03:56:09.724Z,8.50
2022-12-18T03:58:43.028Z,9.30
2022-12-18T04:01:32.305Z,9.30
2022-12-18T04:04:03.324Z,7.70
2022-12-18T04:06:37.026Z,8.20
2022-12-18T04:09:06.181Z,8.70
2022-12-18T04:11:37.286Z,7.80
2022-12-18T04:14:07.340Z,7.40
2022-12-18T04:16:35.745Z,7.70
2022-12-18T04:19:06.189Z,8.00
2022-12-18T04:21:39.534Z,7.80
2022-12-18T04:24:07.963Z,8.80
2022-12-18T04:26:36.586Z,8.80
2022-12-18T04:29:31.299Z,7.90
2022-12-18T04:31:59.344Z,8.60
2022-12-18T04:34:27.666Z,9.00
2022-12-18T04:36:56.182Z,6.90
2022-12-18T04:39:25.333Z,8.70
2022-12-18T04:41:55.484Z,9.50
2022-12-18T04:44:23.975Z,8.40
2022-12-18T04:46:51.914Z,7.60
2022-12-18T04:49:20.280Z,6.80
2022-12-18T04:51:48.580Z,7.10
2022-12-18T04:54:17.083Z,8.20
2022-12-18T04:56:44.944Z,7.40
2022-12-18T04:59:13.237Z,7.60
2022-12-18T05:01:41.420Z,7.30
2022-12-18T05:04:10.027Z,6.30
2022-12-18T05:06:38.464Z,8.00
2022-12-18T05:09:06.540Z,7.90
2022-12-18T05:11:34.701Z,8.60
2022-12-18T05:14:03.200Z,8.50
2022-12-18T05:16:31.248Z,9.40
2022-12-18T05:18:59.077Z,9.20
2022-12-18T05:21:27.641Z,9.30
2022-12-18T05:23:55.542Z,8.60
2022-12-18T05:26:24.252Z,8.20
2022-12-18T05:28:52.744Z,7.40
2022-12-18T05:31:20.764Z,7.00
2022-12-18T05:33:48.685Z,7.80
2022-12-18T05:36:17.448Z,6.70
2022-12-18T05:38:45.294Z,9.20
2022-12-18T05:41:13.173Z,7.60
2022-12-18T05:43:42.632Z,8.50
2022-12-18T05:46:16.254Z,8.20
2022-12-18T05:48:45.862Z,8.20
2022-12-18T05:51:19.251Z,7.40
2022-12-18T05:53:48.081Z,8.10
2022-12-18T05:56:20.275Z,8.90
2022-12-18T05:58:52.052Z,8.60
2022-12-18T06:01:23.116Z,8.20
2022-12-18T06:03:51.508Z,8.00
2022-12-18T06:06:23.863Z,8.30
2022-12-18T06:08:52.391Z,7.20
2022-12-18T06:11:23.829Z,8.10
2022-12-18T06:13:58.138Z,7.90
2022-12-18T06:16:28.342Z,7.90
2022-12-18T06:19:01.104Z,7.40
2022-12-18T06:21:30.846Z,8.90
2022-12-18T06:24:00.652Z,9.80
2022-12-18T06:26:28.877Z,8.70
2022-12-18T06:28:57.378Z,7.50
2022-12-18T06:31:26.734Z,8.40
2022-12-18T06:33:55.025Z,9.50
2022-12-18T06:36:23.362Z,9.50
2022-12-18T06:38:51.250Z,9.50
2022-12-18T06:41:21.408Z,9.00
2022-12-18T06:43:49.989Z,9.40
2022-12-18T06:46:17.899Z,8.80
2022-12-18T06:48:50.000Z,11.80
2022-12-18T06:51:19.919Z,13.30
2022-12-18T06:53:47.862Z,13.10
2022-12-18T06:56:15.781Z,13.20
2022-12-18T06:58:43.921Z,11.70
2022-12-18T07:01:13.060Z,13.30
2022-12-18T07:03:43.566Z,13.80
2022-12-18T07:06:17.541Z,12.90
2022-12-18T07:08:46.659Z,12.90
2022-12-18T07:11:15.804Z,13.10
2022-12-18T07:13:43.952Z,13.30
2022-12-18T07:16:20.804Z,13.20
2022-12-18T07:18:50.531Z,12.80
2022-12-18T07:21:20.772Z,14.80
2022-12-18T07:23:49.475Z,13.70
2022-12-18T07:26:21.407Z,15.20
2022-12-18T07:28:50.059Z,13.50
2022-12-18T07:31:22.102Z,12.60
2022-12-18T07:33:51.608Z,12.20
2022-12-18T07:36:20.820Z,12.70
2022-12-18T07:38:50.322Z,12.40
2022-12-18T07:41:19.767Z,12.20
2022-12-18T07:43:48.346Z,12.80
2022-12-18T07:46:17.846Z,11.60
2022-12-18T07:48:49.340Z,13.00
2022-12-18T07:51:19.765Z,13.80
2022-12-18T07:53:51.304Z,12.50
2022-12-18T07:56:30.099Z,13.20
2022-12-18T07:59:00.287Z,14.20
2022-12-18T08:01:28.711Z,13.30
2022-12-18T08:03:58.396Z,13.20
2022-12-18T08:06:27.184Z,12.40
2022-12-18T08:08:56.786Z,12.90
2022-12-18T08:11:26.888Z,13.50
2022-12-18T08:13:55.056Z,13.60
2022-12-18T08:16:24.911Z,15.30
2022-12-18T08:18:54.243Z,13.10
2022-12-18T08:21:25.267Z,15.20
2022-12-18T08:23:55.559Z,14.80
2022-12-18T08:26:24.379Z,14.90
2022-12-18T08:28:54.766Z,13.40
2022-12-18T08:31:23.649Z,14.80
2022-12-18T08:33:54.473Z,12.70
2022-12-18T08:36:24.921Z,14.50
2022-12-18T08:38:53.919Z,13.50
2022-12-18T08:41:22.644Z,13.80
2022-12-18T08:44:09.976Z,14.80
2022-12-18T08:46:43.385Z,16.70
2022-12-18T08:49:13.048Z,13.70
2022-12-18T08:51:41.460Z,14.10
2022-12-18T08:54:13.894Z,13.70
2022-12-18T08:56:42.268Z,12.20
2022-12-18T08:59:15.813Z,13.80
2022-12-18T09:01:48.532Z,13.30
2022-12-18T09:04:16.667Z,13.70
2022-12-18T09:06:44.647Z,12.70
2022-12-18T09:09:13.073Z,13.10
2022-12-18T09:11:41.016Z,11.30
2022-12-18T09:14:10.982Z,12.70
2022-12-18T09:16:39.382Z,13.90
2022-12-18T09:19:07.430Z,13.80
2022-12-18T09:21:37.211Z,14.60
2022-12-18T09:24:09.101Z,13.70
2022-12-18T09:26:37.991Z,13.90
2022-12-18T09:29:08.586Z,12.90
2022-12-18T09:31:38.017Z,15.20
2022-12-18T09:34:07.110Z,13.80
2022-12-18T09:36:35.375Z,14.10
2022-12-18T09:39:08.085Z,12.10
2022-12-18T09:41:48.627Z,11.90
2022-12-18T09:44:30.962Z,12.50
2022-12-18T09:47:10.669Z,12.80
2022-12-18T09:49:44.042Z,12.80
2022-12-18T09:52:41.089Z,10.80
2022-12-18T09:55:42.122Z,12.20
2022-12-18T09:58:30.243Z,12.50
2022-12-18T10:00:58.319Z,10.70
2022-12-18T10:03:27.765Z,11.70
2022-12-18T10:06:14.888Z,11.80
2022-12-18T10:09:01.793Z,12.70
2022-12-18T10:11:35.868Z,10.10
2022-12-18T10:14:31.793Z,11.90
2022-12-18T10:17:26.253Z,12.50
2022-12-18T10:20:00.707Z,11.10
2022-12-18T10:22:43.238Z,11.20
2022-12-18T10:25:36.319Z,10.60
2022-12-18T10:28:19.051Z,11.00
2022-12-18T10:30:47.766Z,12.80
2022-12-18T10:33:22.296Z,16.40
2022-12-18T10:35:52.116Z,12.70
2022-12-18T10:38:20.376Z,12.80
2022-12-18T10:40:55.538Z,12.10
2022-12-18T10:43:35.002Z,12.80
2022-12-18T10:46:06.794Z,12.40
2022-12-18T10:48:43.382Z,12.30
2022-12-18T10:51:22.200Z,11.10
2022-12-18T10:54:30.542Z,11.30
2022-12-18T10:57:29.591Z,9.90
2022-12-18T11:00:02.051Z,11.10
2022-12-18T11:02:38.980Z,10.80
2022-12-18T11:05:38.145Z,12.10
2022-12-18T11:08:07.217Z,12.20
2022-12-18T11:10:39.032Z,12.80
2022-12-18T11:13:26.145Z,11.80
2022-12-18T11:15:54.424Z,10.20
2022-12-18T11:18:33.784Z,11.70
2022-12-18T11:21:10.991Z,9.80
2022-12-18T11:23:55.034Z,10.10
2022-12-18T11:26:36.964Z,10.20
2022-12-18T11:29:24.893Z,12.70
2022-12-18T11:31:57.076Z,11.40
2022-12-18T11:34:33.093Z,12.20
2022-12-18T11:37:04.104Z,14.00
2022-12-18T11:39:37.875Z,13.00
2022-12-18T11:42:25.553Z,13.60
2022-12-18T11:45:02.533Z,14.40
2022-12-18T11:47:43.322Z,14.10
2022-12-18T11:50:19.690Z,13.30
2022-12-18T11:52:51.499Z,10.30
2022-12-18T11:55:38.191Z,12.30
2022-12-18T11:58:34.097Z,9.90
2022-12-18T12:01:24.353Z,12.10
2022-12-18T12:04:17.039Z,12.60
2022-12-18T12:07:03.599Z,12.60
2022-12-18T12:10:04.970Z,12.40
2022-12-18T12:12:48.999Z,12.70
2022-12-18T12:15:26.648Z,12.60
2022-12-18T12:18:45.890Z,11.50
2022-12-18T12:21:55.851Z,11.60
2022-12-18T12:24:48.183Z,12.50
2022-12-18T12:27:29.539Z,14.10
2022-12-18T12:30:30.732Z,13.00
2022-12-18T12:33:16.962Z,13.10
2022-12-18T12:36:07.808Z,13.20
2022-12-18T12:38:49.815Z,12.50
2022-12-18T12:41:43.755Z,14.40
2022-12-18T12:44:27.764Z,13.30
2022-12-18T12:47:00.425Z,12.70
2022-12-18T12:49:37.644Z,11.00
2022-12-18T12:52:15.573Z,12.50
2022-12-18T12:54:45.783Z,13.80
2022-12-18T12:57:23.210Z,13.10
2022-12-18T12:59:58.271Z,12.30
2022-12-18T13:02:58.007Z,14.70
2022-12-18T13:05:57.502Z,12.80
2022-12-18T13:08:33.398Z,13.70
2022-12-18T13:11:22.786Z,12.70
2022-12-18T13:13:53.633Z,15.60
2022-12-18T13:16:25.401Z,13.30
2022-12-18T13:18:55.654Z,12.80
2022-12-18T13:21:30.321Z,14.80
2022-12-18T13:24:17.059Z,15.50
2022-12-18T13:26:44.848Z,15.60
2022-12-18T13:29:43.826Z,15.70
2022-12-18T13:32:25.046Z,14.90
2022-12-18T13:35:19.710Z,13.70
2022-12-18T13:37:56.004Z,14.60
2022-12-18T13:40:39.553Z,15.80
2022-12-18T13:43:22.867Z,13.00
2022-12-18T13:46:17.785Z,13.70
2022-12-18T13:49:07.715Z,14.50
2022-12-18T13:51:36.908Z,12.70
2022-12-18T13:54:33.716Z,14.30
2022-12-18T13:57:03.280Z,14.60
2022-12-18T13:59:37.553Z,12.20
2022-12-18T14:02:23.111Z,14.40
2022-12-18T14:04:52.988Z,16.50
2022-12-18T14:07:26.712Z,18.40
2022-12-18T14:10:18.793Z,15.50
2022-12-18T14:13:00.881Z,15.00
2022-12-18T14:15:35.041Z,13.70
2022-12-18T14:18:23.898Z,15.90
2022-12-18T14:20:57.949Z,15.70
2022-12-18T14:23:43.531Z,13.60
2022-12-18T14:26:26.540Z,14.70
2022-12-18T14:28:55.763Z,13.40
2022-12-18T14:31:29.663Z,12.30
2022-12-18T14:33:57.847Z,12.70
2022-12-18T14:36:28.529Z,16.70
2022-12-18T14:38:59.382Z,16.80
2022-12-18T14:41:28.870Z,16.50
2022-12-18T14:44:07.450Z,15.40
2022-12-18T14:46:41.058Z,16.70
2022-12-18T14:49:32.600Z,16.20
2022-12-18T14:52:20.962Z,14.50
2022-12-18T14:54:49.859Z,14.70
2022-12-18T14:57:36.709Z,13.70
2022-12-18T15:00:16.265Z,11.20
2022-12-18T15:02:46.598Z,13.00
2022-12-18T15:05:14.520Z,14.00
2022-12-18T15:07:44.773Z,14.10
2022-12-18T15:10:23.298Z,16.00
2022-12-18T15:12:57.797Z,14.20
2022-12-18T15:15:35.500Z,16.20
2022-12-18T15:18:13.723Z,14.10
2022-12-18T15:21:12.418Z,16.80
2022-12-18T15:23:54.462Z,18.90
2022-12-18T15:26:23.578Z,18.20
2022-12-18T15:28:54.014Z,15.70
2022-12-18T15:31:33.708Z,16.70
2022-12-18T15:34:12.495Z,18.60
2022-12-18T15:36:41.357Z,16.80
2022-12-18T15:39:13.275Z,17.20
2022-12-18T15:42:02.089Z,11.90
2022-12-18T15:44:30.714Z,10.50
2022-12-18T15:46:58.920Z,12.80
2022-12-18T15:49:27.084Z,13.20
2022-12-18T15:52:01.242Z,14.40
2022-12-18T15:54:48.369Z,16.00
2022-12-18T15:57:25.841Z,11.20
2022-12-18T15:59:59.613Z,14.80
2022-12-18T16:02:29.787Z,14.70
2022-12-18T16:04:58.413Z,12.80
2022-12-18T16:07:29.165Z,12.10
2022-12-18T16:10:00.300Z,16.20
2022-12-18T16:12:30.486Z,17.00
2022-12-18T16:14:58.696Z,16.60
2022-12-18T16:17:27.119Z,16.70
2022-12-18T16:19:55.353Z,15.50
2022-12-18T16:22:30.612Z,13.40
2022-12-18T16:24:59.097Z,14.30
2022-12-18T16:27:27.232Z,15.90
2022-12-18T16:29:55.381Z,13.10
2022-12-18T16:32:24.502Z,13.60
2022-12-18T16:34:52.788Z,12.60
2022-12-18T16:37:31.272Z,12.80
2022-12-18T16:39:59.755Z,11.10
2022-12-18T16:42:27.912Z,9.80
2022-12-18T16:44:58.004Z,11.60
2022-12-18T16:47:26.353Z,9.60
2022-12-18T16:49:54.484Z,11.40
2022-12-18T16:52:22.735Z,11.90
2022-12-18T16:54:50.942Z,12.30
2022-12-18T16:57:21.115Z,12.10
2022-12-18T16:59:53.344Z,13.80
2022-12-18T17:02:25.774Z,12.70
2022-12-18T17:05:00.385Z,13.20
2022-12-18T17:07:28.551Z,14.30
2022-12-18T17:09:57.092Z,14.30
2022-12-18T17:12:25.265Z,14.20
2022-12-18T17:14:53.285Z,11.40
2022-12-18T17:17:23.048Z,12.60
2022-12-18T17:19:52.856Z,9.40
2022-12-18T17:22:23.268Z,12.60
2022-12-18T17:24:51.594Z,13.80
2022-12-18T17:27:19.757Z,12.90
2022-12-18T17:29:48.963Z,16.00
2022-12-18T17:32:18.483Z,13.60
2022-12-18T17:34:47.137Z,13.10
2022-12-18T17:37:15.748Z,11.90
2022-12-18T17:39:43.789Z,11.50
2022-12-18T17:42:15.684Z,12.60
2022-12-18T17:44:45.483Z,12.00
2022-12-18T17:47:15.531Z,13.60
2022-12-18T17:49:43.499Z,13.10
2022-12-18T17:52:11.445Z,11.00
2022-12-18T17:54:42.349Z,11.10
2022-12-18T17:57:10.669Z,12.80
2022-12-18T17:59:38.862Z,12.20
2022-12-18T18:02:07.537Z,12.30
2022-12-18T18:04:36.447Z,12.90
2022-12-18T18:07:04.536Z,13.60
2022-12-18T18:09:32.889Z,12.60
2022-12-18T18:12:19.289Z,10.90
2022-12-18T18:14:47.997Z,11.60
2022-12-18T18:17:15.985Z,10.70
2022-12-18T18:19:47.431Z,10.50
2022-12-18T18:22:19.610Z,10.70
2022-12-18T18:24:48.193Z,8.10
2022-12-18T18:27:16.423Z,10.70
2022-12-18T18:29:45.089Z,5.00
2022-12-18T18:32:12.907Z,12.50
2022-12-18T18:34:40.945Z,10.80
2022-12-18T18:37:10.854Z,12.10
2022-12-18T18:39:38.853Z,12.70
2022-12-18T18:42:07.075Z,10.60
2022-12-18T18:44:35.573Z,8.90
2022-12-18T18:47:05.628Z,11.00
2022-12-18T18:49:38.057Z,12.00
2022-12-18T18:52:07.498Z,13.60
2022-12-18T18:54:35.572Z,10.40
2022-12-18T18:57:20.465Z,14.80
2022-12-18T18:59:51.656Z,17.70
2022-12-18T19:02:20.040Z,22.00
2022-12-18T19:04:48.110Z,16.20
2022-12-18T19:07:29.346Z,8.60
2022-12-18T19:10:04.594Z,18.90
2022-12-18T19:12:54.903Z,15.10
2022-12-18T19:15:23.598Z,9.40
2022-12-18T19:17:51.478Z,16.50
2022-12-18T19:20:19.653Z,15.50
2022-12-18T19:22:55.282Z,13.60
2022-12-18T19:25:37.163Z,8.90
2022-12-18T19:28:15.818Z,12.10
2022-12-18T19:30:58.657Z,9.60
2022-12-18T19:33:45.928Z,10.30
2022-12-18T19:36:17.727Z,10.60
2022-12-18T19:38:46.894Z,14.10
2022-12-18T19:41:16.295Z,7.10
2022-12-18T19:43:45.026Z,9.30
2022-12-18T19:46:16.327Z,7.80
2022-12-18T19:48:45.365Z,8.30
2022-12-18T19:51:19.678Z,8.70
2022-12-18T19:53:48.251Z,9.60
2022-12-18T19:56:19.950Z,5.60
2022-12-18T19:58:49.162Z,6.70
2022-12-18T20:01:20.243Z,8.20
2022-12-18T20:03:52.200Z,8.60
2022-12-18T20:06:25.081Z,8.40
2022-12-18T20:08:57.969Z,6.00
2022-12-18T20:11:33.897Z,9.90
2022-12-18T20:14:07.027Z,10.40
2022-12-18T20:16:35.787Z,10.40
2022-12-18T20:19:03.974Z,10.40
2022-12-18T20:21:32.101Z,11.20
2022-12-18T20:24:01.547Z,11.70
2022-12-18T20:26:29.706Z,10.90
2022-12-18T20:28:58.433Z,5.70
2022-12-18T20:31:26.870Z,4.80
2022-12-18T20:34:00.173Z,8.20
2022-12-18T20:36:30.391Z,8.80
2022-12-18T20:39:01.679Z,6.90
2022-12-18T20:41:38.099Z,4.30
2022-12-18T20:44:22.236Z,6.40
2022-12-18T20:46:54.708Z,7.00
2022-12-18T20:49:24.979Z,7.30
2022-12-18T20:51:56.449Z,6.00
2022-12-18T20:54:29.256Z,7.30
2022-12-18T20:56:57.353Z,7.00
2022-12-18T20:59:26.085Z,8.80
2022-12-18T21:01:54.982Z,8.00
2022-12-18T21:04:24.442Z,9.60
2022-12-18T21:07:00.524Z,9.10
2022-12-18T21:09:37.436Z,2.90
2022-12-18T21:12:40.267Z,7.60
2022-12-18T21:15:12.192Z,7.10
2022-12-18T21:17:44.049Z,6.50
2022-12-18T21:20:17.362Z,7.60
2022-12-18T21:22:47.112Z,2.50
2022-12-18T21:25:15.255Z,6.90
2022-12-18T21:27:43.106Z,7.70
2022-12-18T21:30:11.810Z,7.30
2022-12-18T21:32:40.113Z,6.40
2022-12-18T21:35:08.464Z,6.60
2022-12-18T21:37:36.480Z,7.60
2022-12-18T21:40:06.238Z,6.30
2022-12-18T21:42:52.973Z,6.10
2022-12-18T21:45:21.253Z,5.40
2022-12-18T21:47:49.209Z,6.10
2022-12-18T21:50:17.182Z,5.50
2022-12-18T21:52:45.463Z,7.20
2022-12-18T21:55:13.283Z,3.80
2022-12-18T21:57:41.217Z,5.50
2022-12-18T22:00:19.002Z,6.80
2022-12-18T22:03:07.385Z,3.30
2022-12-18T22:05:37.682Z,5.10
2022-12-18T22:08:07.055Z,7.40
2022-12-18T22:10:36.040Z,2.90
2022-12-18T22:13:05.809Z,5.40
2022-12-18T22:15:33.760Z,5.40
2022-12-18T22:18:02.158Z,6.40
2022-12-18T22:20:30.768Z,5.70
2022-12-18T22:23:04.258Z,7.10
2022-12-18T22:25:37.273Z,6.20
2022-12-18T22:28:26.504Z,5.80
2022-12-18T22:30:59.706Z,6.90
2022-12-18T22:33:28.526Z,6.80
2022-12-18T22:35:56.668Z,2.60
2022-12-18T22:38:26.364Z,6.70
2022-12-18T22:40:54.942Z,6.80
2022-12-18T22:43:22.753Z,6.00
2022-12-18T22:45:51.159Z,5.80
2022-12-18T22:48:19.372Z,3.60
2022-12-18T22:50:47.275Z,6.20
2022-12-18T22:53:17.679Z,4.90
2022-12-18T22:55:45.602Z,2.10
2022-12-18T22:58:13.558Z,5.80
2022-12-18T23:00:42.030Z,6.20
2022-12-18T23:03:10.366Z,5.60
2022-12-18T23:05:38.515Z,5.70
2022-12-18T23:08:06.511Z,6.30
2022-12-18T23:10:37.979Z,5.20
2022-12-18T23:13:05.895Z,6.80
2022-12-18T23:15:34.438Z,7.40
2022-12-18T23:18:02.323Z,7.10
2022-12-18T23:20:30.738Z,6.20
2022-12-18T23:22:58.973Z,7.00
2022-12-18T23:25:26.915Z,6.00
2022-12-18T23:27:54.919Z,3.60
2022-12-18T23:30:22.988Z,7.90
2022-12-18T23:32:51.179Z,6.20
2022-12-18T23:35:19.515Z,6.50
2022-12-18T23:38:04.471Z,6.40
2022-12-18T23:40:32.703Z,6.40
2022-12-18T23:43:00.995Z,3.10
2022-12-18T23:45:28.911Z,5.30
2022-12-18T23:47:57.270Z,6.60
2022-12-18T23:50:29.727Z,6.20
2022-12-18T23:53:05.186Z,6.70
2022-12-18T23:55:39.995Z,5.60
2022-12-18T23:58:16.084Z,5.50
